createdAt,value
2023-04-07T00:02:21.413Z,8.69
2023-04-07T00:04:51.093Z,8.68
2023-04-07T00:07:19.209Z,8.67
2023-04-07T00:09:47.364Z,8.67
2023-04-07T00:12:15.741Z,8.83
2023-04-07T00:14:43.552Z,8.79
2023-04-07T00:17:12.454Z,8.82
2023-04-07T00:19:40.432Z,8.89
2023-04-07T00:22:10.210Z,9.00
2023-04-07T00:24:38.638Z,9.01
2023-04-07T00:27:06.950Z,8.85
2023-04-07T00:29:35.055Z,8.54
2023-04-07T00:32:03.178Z,8.30
2023-04-07T00:34:31.343Z,8.37
2023-04-07T00:36:59.448Z,8.38
2023-04-07T00:39:28.759Z,8.35
2023-04-07T00:41:59.806Z,8.40
2023-04-07T00:44:28.258Z,8.59
2023-04-07T00:46:57.627Z,8.60
2023-04-07T00:49:25.829Z,8.61
2023-04-07T00:51:53.993Z,8.72
2023-04-07T00:54:23.064Z,8.72
2023-04-07T00:56:53.571Z,8.87
2023-04-07T00:59:22.963Z,8.98
2023-04-07T01:01:56.876Z,9.12
2023-04-07T01:04:29.372Z,9.25
2023-04-07T01:07:00.715Z,9.23
2023-04-07T01:09:38.755Z,9.09
2023-04-07T01:12:11.607Z,9.15
2023-04-07T01:14:45.109Z,9.10
2023-04-07T01:17:29.509Z,9.13
2023-04-07T01:19:59.855Z,9.27
2023-04-07T01:22:30.176Z,9.28
2023-04-07T01:25:18.381Z,9.38
2023-04-07T01:27:56.458Z,9.47
2023-04-07T01:30:29.140Z,9.49
2023-04-07T01:32:59.647Z,9.46
2023-04-07T01:35:30.199Z,9.46
2023-04-07T01:37:58.601Z,9.48
2023-04-07T01:40:27.092Z,9.39
2023-04-07T01:42:56.696Z,9.36
2023-04-07T01:45:28.068Z,9.39
2023-04-07T01:47:56.322Z,9.46
2023-04-07T01:50:25.137Z,9.51
2023-04-07T01:52:54.464Z,9.55
2023-04-07T01:55:25.192Z,9.65
2023-04-07T01:58:05.370Z,9.61
2023-04-07T02:00:36.107Z,9.53
2023-04-07T02:03:13.123Z,9.66
2023-04-07T02:05:41.729Z,9.68
2023-04-07T02:08:13.110Z,9.71
2023-04-07T02:10:43.170Z,9.73
2023-04-07T02:13:14.748Z,9.72
2023-04-07T02:15:46.105Z,9.70
2023-04-07T02:18:16.058Z,9.75
2023-04-07T02:20:45.152Z,9.89
2023-04-07T02:23:16.610Z,9.96
2023-04-07T02:25:44.877Z,10.00
2023-04-07T02:28:13.142Z,9.96
2023-04-07T02:30:41.514Z,9.94
2023-04-07T02:33:11.276Z,9.94
2023-04-07T02:35:39.286Z,9.71
2023-04-07T02:38:07.300Z,9.42
2023-04-07T02:40:37.564Z,9.22
2023-04-07T02:43:06.417Z,9.31
2023-04-07T02:45:34.285Z,9.22
2023-04-07T02:48:02.845Z,9.19
2023-04-07T02:50:34.518Z,9.10
2023-04-07T02:53:02.580Z,9.04
2023-04-07T02:55:35.433Z,8.96
2023-04-07T02:58:03.525Z,9.11
2023-04-07T03:00:38.504Z,9.14
2023-04-07T03:03:17.727Z,9.22
2023-04-07T03:05:59.890Z,9.13
2023-04-07T03:08:27.759Z,9.17
2023-04-07T03:10:57.048Z,9.16
2023-04-07T03:13:31.013Z,9.23
2023-04-07T03:15:59.566Z,9.27
2023-04-07T03:18:32.310Z,9.21
2023-04-07T03:21:04.016Z,9.21
2023-04-07T03:23:32.422Z,9.28
2023-04-07T03:26:01.194Z,9.29
2023-04-07T03:28:33.760Z,9.23
2023-04-07T03:31:01.992Z,9.15
2023-04-07T03:33:30.116Z,9.30
2023-04-07T03:35:58.111Z,9.46
2023-04-07T03:38:27.664Z,9.50
2023-04-07T03:40:59.029Z,9.49
2023-04-07T03:43:27.264Z,9.46
2023-04-07T03:45:55.232Z,9.57
2023-04-07T03:48:24.423Z,9.56
2023-04-07T03:51:02.708Z,9.59
2023-04-07T03:53:34.463Z,9.52
2023-04-07T03:56:11.776Z,9.50
2023-04-07T03:58:49.318Z,9.02
2023-04-07T04:01:25.556Z,8.98
2023-04-07T04:03:55.239Z,9.27
2023-04-07T04:06:27.302Z,9.42
2023-04-07T04:09:03.516Z,9.65
2023-04-07T04:11:35.861Z,9.82
2023-04-07T04:14:06.711Z,9.85
2023-04-07T04:16:37.128Z,9.83
2023-04-07T04:19:11.453Z,9.69
2023-04-07T04:21:39.437Z,9.62
2023-04-07T04:24:10.054Z,9.45
2023-04-07T04:26:39.440Z,9.44
2023-04-07T04:29:12.783Z,9.22
2023-04-07T04:31:43.268Z,9.21
2023-04-07T04:34:12.141Z,9.20
2023-04-07T04:36:41.617Z,9.23
2023-04-07T04:39:11.085Z,9.29
2023-04-07T04:41:39.788Z,9.45
2023-04-07T04:44:10.594Z,9.65
2023-04-07T04:46:41.210Z,9.79
2023-04-07T04:49:09.150Z,9.97
2023-04-07T04:51:37.429Z,10.09
2023-04-07T04:54:14.965Z,10.16
2023-04-07T04:56:43.028Z,10.19
2023-04-07T04:59:12.210Z,9.86
2023-04-07T05:01:53.602Z,9.85
2023-04-07T05:04:22.236Z,9.64
2023-04-07T05:06:59.112Z,9.58
2023-04-07T05:09:31.194Z,9.48
2023-04-07T05:11:59.207Z,9.28
2023-04-07T05:14:28.798Z,9.04
2023-04-07T05:17:04.195Z,9.09
2023-04-07T05:19:32.746Z,9.18
2023-04-07T05:22:08.994Z,9.38
2023-04-07T05:24:45.410Z,9.54
2023-04-07T05:27:13.498Z,9.59
2023-04-07T05:29:43.323Z,9.69
2023-04-07T05:32:23.741Z,9.71
2023-04-07T05:34:53.166Z,9.50
2023-04-07T05:37:24.410Z,9.51
2023-04-07T05:39:53.963Z,9.42
2023-04-07T05:42:22.447Z,9.59
2023-04-07T05:44:53.637Z,9.75
2023-04-07T05:47:24.299Z,9.75
2023-04-07T05:49:52.515Z,9.88
2023-04-07T05:52:21.150Z,9.75
2023-04-07T05:54:57.682Z,9.72
2023-04-07T05:57:29.688Z,9.43
2023-04-07T06:00:00.944Z,9.28
2023-04-07T06:02:30.872Z,9.31
2023-04-07T06:05:00.411Z,9.30
2023-04-07T06:07:28.605Z,9.46
2023-04-07T06:09:58.478Z,9.56
2023-04-07T06:12:27.554Z,9.57
2023-04-07T06:14:56.435Z,9.52
2023-04-07T06:17:24.516Z,9.38
2023-04-07T06:19:52.649Z,9.34
2023-04-07T06:22:20.983Z,9.65
2023-04-07T06:24:48.977Z,9.78
2023-04-07T06:27:18.780Z,9.92
2023-04-07T06:29:48.944Z,10.12
2023-04-07T06:32:17.431Z,10.26
2023-04-07T06:34:45.398Z,10.37
2023-04-07T06:37:13.526Z,10.55
2023-04-07T06:39:41.576Z,10.52
2023-04-07T06:42:10.350Z,10.55
2023-04-07T06:44:51.652Z,10.71
2023-04-07T06:47:19.654Z,10.88
2023-04-07T06:49:47.768Z,10.90
2023-04-07T06:52:15.754Z,10.93
2023-04-07T06:54:44.781Z,10.95
2023-04-07T06:57:12.983Z,10.92
2023-04-07T06:59:41.086Z,11.02
2023-04-07T07:02:10.809Z,10.97
2023-04-07T07:04:39.273Z,10.97
2023-04-07T07:07:07.147Z,10.90
2023-04-07T07:09:35.429Z,10.96
2023-04-07T07:12:04.338Z,11.09
2023-04-07T07:14:32.060Z,11.20
2023-04-07T07:17:00.032Z,11.09
2023-04-07T07:19:29.134Z,11.23
2023-04-07T07:21:57.262Z,11.34
2023-04-07T07:24:24.896Z,11.16
2023-04-07T07:26:53.129Z,11.19
2023-04-07T07:29:21.411Z,11.27
2023-04-07T07:31:49.368Z,11.26
2023-04-07T07:34:17.193Z,11.04
2023-04-07T07:36:46.562Z,10.85
2023-04-07T07:39:15.200Z,10.85
2023-04-07T07:41:43.164Z,10.92
2023-04-07T07:44:11.196Z,11.12
2023-04-07T07:46:39.274Z,11.21
2023-04-07T07:49:07.213Z,11.31
2023-04-07T07:51:35.106Z,11.38
2023-04-07T07:54:04.462Z,11.16
2023-04-07T07:56:32.370Z,11.27
2023-04-07T07:59:00.320Z,11.51
2023-04-07T08:01:28.255Z,11.73
2023-04-07T08:03:56.322Z,12.03
2023-04-07T08:06:24.461Z,12.31
2023-04-07T08:08:53.087Z,12.62
2023-04-07T08:11:22.407Z,12.89
2023-04-07T08:13:54.077Z,13.35
2023-04-07T08:16:23.665Z,13.57
2023-04-07T08:18:51.893Z,13.74
2023-04-07T08:21:20.288Z,13.98
2023-04-07T08:23:48.636Z,14.56
2023-04-07T08:26:17.364Z,15.32
2023-04-07T08:28:47.162Z,15.49
2023-04-07T08:31:15.491Z,16.07
2023-04-07T08:33:43.647Z,15.56
2023-04-07T08:36:12.770Z,14.29
2023-04-07T08:38:40.702Z,13.88
2023-04-07T08:41:09.787Z,14.75
2023-04-07T08:43:39.847Z,15.41
2023-04-07T08:46:11.582Z,16.07
2023-04-07T08:48:39.926Z,16.46
2023-04-07T08:51:10.384Z,16.64
2023-04-07T08:53:42.547Z,17.38
2023-04-07T08:56:13.072Z,17.51
2023-04-07T08:58:41.528Z,17.66
2023-04-07T09:01:11.516Z,17.63
2023-04-07T09:03:40.593Z,18.09
2023-04-07T09:06:09.061Z,18.20
2023-04-07T09:08:37.115Z,18.30
2023-04-07T09:11:05.279Z,16.25
2023-04-07T09:13:33.625Z,17.24
2023-04-07T09:16:03.951Z,18.04
2023-04-07T09:18:34.192Z,17.50
2023-04-07T09:21:03.702Z,17.40
2023-04-07T09:23:32.679Z,17.68
2023-04-07T09:26:04.137Z,16.41
2023-04-07T09:28:45.150Z,13.48
2023-04-07T09:31:13.337Z,14.08
2023-04-07T09:33:43.021Z,15.10
2023-04-07T09:36:13.925Z,15.85
2023-04-07T09:38:42.514Z,13.76
2023-04-07T09:41:11.589Z,11.98
2023-04-07T09:43:40.620Z,12.02
2023-04-07T09:46:09.661Z,12.72
2023-04-07T09:48:37.673Z,13.32
2023-04-07T09:51:11.371Z,12.14
2023-04-07T09:53:43.702Z,10.98
2023-04-07T09:56:12.083Z,11.93
2023-04-07T09:58:41.977Z,12.60
2023-04-07T10:01:10.994Z,13.76
2023-04-07T10:03:40.249Z,13.81
2023-04-07T10:06:08.605Z,12.13
2023-04-07T10:08:41.866Z,12.08
2023-04-07T10:11:10.486Z,12.73
2023-04-07T10:13:40.471Z,12.61
2023-04-07T10:16:09.330Z,12.20
2023-04-07T10:18:40.715Z,12.97
2023-04-07T10:21:09.500Z,12.13
2023-04-07T10:23:58.026Z,11.32
2023-04-07T10:26:27.708Z,11.25
2023-04-07T10:29:00.406Z,11.93
2023-04-07T10:31:28.949Z,12.96
2023-04-07T10:33:57.654Z,14.20
2023-04-07T10:36:29.123Z,14.80
2023-04-07T10:39:15.607Z,15.49
2023-04-07T10:41:46.289Z,15.95
2023-04-07T10:44:30.118Z,16.37
2023-04-07T10:47:05.770Z,16.68
2023-04-07T10:49:34.052Z,16.83
2023-04-07T10:52:22.303Z,16.65
2023-04-07T10:55:10.256Z,16.59
2023-04-07T10:57:39.861Z,16.86
2023-04-07T11:00:18.385Z,16.71
2023-04-07T11:02:46.914Z,16.67
2023-04-07T11:05:22.608Z,16.79
2023-04-07T11:07:52.520Z,16.71
2023-04-07T11:10:22.298Z,16.97
2023-04-07T11:13:05.646Z,16.67
2023-04-07T11:15:37.121Z,17.28
2023-04-07T11:18:17.401Z,16.70
2023-04-07T11:20:46.822Z,14.24
2023-04-07T11:23:14.978Z,12.48
2023-04-07T11:25:44.556Z,13.55
2023-04-07T11:28:15.129Z,13.53
2023-04-07T11:30:47.548Z,12.90
2023-04-07T11:33:18.866Z,13.19
2023-04-07T11:35:51.186Z,12.21
2023-04-07T11:38:19.900Z,13.38
2023-04-07T11:40:48.133Z,13.26
2023-04-07T11:43:21.833Z,12.25
2023-04-07T11:46:05.340Z,12.77
2023-04-07T11:48:34.040Z,13.58
2023-04-07T11:51:03.364Z,14.19
2023-04-07T11:53:32.681Z,13.92
2023-04-07T11:56:02.764Z,13.92
2023-04-07T11:58:40.200Z,14.05
2023-04-07T12:01:09.873Z,12.59
2023-04-07T12:03:38.747Z,12.47
2023-04-07T12:06:07.954Z,13.00
2023-04-07T12:08:43.088Z,12.97
2023-04-07T12:11:13.502Z,11.85
2023-04-07T12:13:43.259Z,12.51
2023-04-07T12:16:12.791Z,12.52
2023-04-07T12:18:42.003Z,13.30
2023-04-07T12:21:09.870Z,12.42
2023-04-07T12:23:38.135Z,12.74
2023-04-07T12:26:06.473Z,12.67
2023-04-07T12:28:35.078Z,12.14
2023-04-07T12:31:05.935Z,12.21
2023-04-07T12:33:34.259Z,12.69
2023-04-07T12:36:02.618Z,11.76
2023-04-07T12:38:30.616Z,12.08
2023-04-07T12:41:03.651Z,12.34
2023-04-07T12:43:31.861Z,13.28
2023-04-07T12:46:00.310Z,12.88
2023-04-07T12:48:30.346Z,13.78
2023-04-07T12:50:58.719Z,13.96
2023-04-07T12:53:27.348Z,13.81
2023-04-07T12:55:56.227Z,15.02
2023-04-07T12:58:24.787Z,16.07
2023-04-07T13:00:53.466Z,15.76
2023-04-07T13:03:22.019Z,15.90
2023-04-07T13:05:51.615Z,16.99
2023-04-07T13:08:19.687Z,15.17
2023-04-07T13:10:47.874Z,14.56
2023-04-07T13:13:16.005Z,13.29
2023-04-07T13:15:44.300Z,12.60
2023-04-07T13:18:12.544Z,12.10
2023-04-07T13:20:40.435Z,12.77
2023-04-07T13:23:10.368Z,13.72
2023-04-07T13:25:39.150Z,14.08
2023-04-07T13:28:07.492Z,14.03
2023-04-07T13:30:35.685Z,13.52
2023-04-07T13:33:04.271Z,12.97
2023-04-07T13:35:36.100Z,13.40
2023-04-07T13:38:04.437Z,14.15
2023-04-07T13:40:34.769Z,13.89
2023-04-07T13:43:02.958Z,14.46
2023-04-07T13:45:31.050Z,14.51
2023-04-07T13:47:58.922Z,14.54
2023-04-07T13:50:27.390Z,15.52
2023-04-07T13:52:55.264Z,15.41
2023-04-07T13:55:23.416Z,15.47
2023-04-07T13:57:52.788Z,16.39
2023-04-07T14:00:21.398Z,16.89
2023-04-07T14:02:50.379Z,16.45
2023-04-07T14:05:18.622Z,15.74
2023-04-07T14:07:47.220Z,17.49
2023-04-07T14:10:15.952Z,17.38
2023-04-07T14:12:44.331Z,17.27
2023-04-07T14:15:20.971Z,14.40
2023-04-07T14:17:49.769Z,14.30
2023-04-07T14:20:18.123Z,13.65
2023-04-07T14:22:46.306Z,13.90
2023-04-07T14:25:15.037Z,13.95
2023-04-07T14:27:43.430Z,14.19
2023-04-07T14:30:12.318Z,13.98
2023-04-07T14:32:44.284Z,13.79
2023-04-07T14:35:12.364Z,13.55
2023-04-07T14:37:41.322Z,13.16
2023-04-07T14:40:10.286Z,13.01
2023-04-07T14:42:40.084Z,13.57
2023-04-07T14:45:09.239Z,13.72
2023-04-07T14:47:37.263Z,14.63
2023-04-07T14:50:08.064Z,14.61
2023-04-07T14:52:36.005Z,14.43
2023-04-07T14:55:04.379Z,14.36
2023-04-07T14:57:33.036Z,15.23
2023-04-07T15:00:01.093Z,14.46
2023-04-07T15:02:32.098Z,14.56
2023-04-07T15:05:00.540Z,13.14
2023-04-07T15:07:30.103Z,14.14
2023-04-07T15:09:59.857Z,14.44
2023-04-07T15:12:31.527Z,14.32
2023-04-07T15:14:59.465Z,14.24
2023-04-07T15:17:36.641Z,13.66
2023-04-07T15:20:12.803Z,12.97
2023-04-07T15:22:42.891Z,12.65
2023-04-07T15:25:12.113Z,12.00
2023-04-07T15:27:40.245Z,12.05
2023-04-07T15:30:09.553Z,12.70
2023-04-07T15:32:37.867Z,12.96
2023-04-07T15:35:07.648Z,12.97
2023-04-07T15:37:35.316Z,12.91
2023-04-07T15:40:04.948Z,12.82
2023-04-07T15:42:35.724Z,12.30
2023-04-07T15:45:03.781Z,12.05
2023-04-07T15:47:32.139Z,12.04
2023-04-07T15:50:00.188Z,11.61
2023-04-07T15:52:28.593Z,11.60
2023-04-07T15:54:56.712Z,11.15
2023-04-07T15:57:26.324Z,11.19
2023-04-07T15:59:55.259Z,11.14
2023-04-07T16:02:23.709Z,11.25
2023-04-07T16:04:52.268Z,11.51
2023-04-07T16:07:20.678Z,11.41
2023-04-07T16:09:48.660Z,11.97
2023-04-07T16:12:19.060Z,11.99
2023-04-07T16:14:48.261Z,11.53
2023-04-07T16:17:16.356Z,11.08
2023-04-07T16:19:44.472Z,11.22
2023-04-07T16:22:12.789Z,11.73
2023-04-07T16:24:42.069Z,11.85
2023-04-07T16:27:11.235Z,11.55
2023-04-07T16:29:39.475Z,11.26
2023-04-07T16:32:09.121Z,11.31
2023-04-07T16:34:37.251Z,11.35
2023-04-07T16:37:05.495Z,11.55
2023-04-07T16:39:33.926Z,11.36
2023-04-07T16:42:02.778Z,11.59
2023-04-07T16:44:32.805Z,11.45
2023-04-07T16:47:02.261Z,11.83
2023-04-07T16:49:33.457Z,11.78
2023-04-07T16:52:03.245Z,11.57
2023-04-07T16:54:35.497Z,11.81
2023-04-07T16:57:06.897Z,11.67
2023-04-07T16:59:35.743Z,11.36
2023-04-07T17:02:07.968Z,11.18
2023-04-07T17:04:37.796Z,10.97
2023-04-07T17:07:06.101Z,10.92
2023-04-07T17:09:34.298Z,11.03
2023-04-07T17:12:03.334Z,10.90
2023-04-07T17:14:31.779Z,10.83
2023-04-07T17:16:59.703Z,10.68
2023-04-07T17:19:28.586Z,10.48
2023-04-07T17:21:58.328Z,10.53
2023-04-07T17:24:26.312Z,10.54
2023-04-07T17:26:54.361Z,10.41
2023-04-07T17:29:26.142Z,10.40
2023-04-07T17:31:55.440Z,10.68
2023-04-07T17:34:23.927Z,10.50
2023-04-07T17:36:52.033Z,10.37
2023-04-07T17:39:21.310Z,10.56
2023-04-07T17:41:49.191Z,10.82
2023-04-07T17:44:17.330Z,11.44
2023-04-07T17:46:45.771Z,11.63
2023-04-07T17:49:14.972Z,11.39
2023-04-07T17:51:43.030Z,11.40
2023-04-07T17:54:11.167Z,11.50
2023-04-07T17:56:40.273Z,11.36
2023-04-07T17:59:08.556Z,11.36
2023-04-07T18:01:36.806Z,11.09
2023-04-07T18:04:06.710Z,10.98
2023-04-07T18:06:35.376Z,11.20
2023-04-07T18:09:06.269Z,11.27
2023-04-07T18:11:34.326Z,11.11
2023-04-07T18:14:03.526Z,11.18
2023-04-07T18:16:31.847Z,10.75
2023-04-07T18:19:03.017Z,10.78
2023-04-07T18:21:31.505Z,11.03
2023-04-07T18:23:59.388Z,11.45
2023-04-07T18:26:28.895Z,11.16
2023-04-07T18:28:58.216Z,11.20
2023-04-07T18:31:27.942Z,11.22
2023-04-07T18:33:56.073Z,11.54
2023-04-07T18:36:27.132Z,11.87
2023-04-07T18:38:55.030Z,11.86
2023-04-07T18:41:23.022Z,11.40
2023-04-07T18:43:51.760Z,11.01
2023-04-07T18:46:20.051Z,11.34
2023-04-07T18:48:52.023Z,11.53
2023-04-07T18:51:19.870Z,11.62
2023-04-07T18:53:48.405Z,11.90
2023-04-07T18:56:16.354Z,11.93
2023-04-07T18:58:47.395Z,11.70
2023-04-07T19:01:17.403Z,11.66
2023-04-07T19:03:46.632Z,11.66
2023-04-07T19:06:17.023Z,11.81
2023-04-07T19:08:46.077Z,11.98
2023-04-07T19:11:15.644Z,11.99
2023-04-07T19:13:43.747Z,12.08
2023-04-07T19:16:12.458Z,11.63
2023-04-07T19:18:40.538Z,11.79
2023-04-07T19:21:09.181Z,11.06
2023-04-07T19:23:42.211Z,10.66
2023-04-07T19:26:11.759Z,10.37
2023-04-07T19:28:41.097Z,10.32
2023-04-07T19:31:10.937Z,10.20
2023-04-07T19:33:39.656Z,10.15
2023-04-07T19:36:07.449Z,10.44
2023-04-07T19:38:35.966Z,10.50
2023-04-07T19:41:05.472Z,10.32
2023-04-07T19:43:33.654Z,10.35
2023-04-07T19:46:04.399Z,10.33
2023-04-07T19:48:32.595Z,10.67
2023-04-07T19:51:00.791Z,10.91
2023-04-07T19:53:29.369Z,10.72
2023-04-07T19:55:57.331Z,10.69
2023-04-07T19:58:26.705Z,10.94
2023-04-07T20:00:55.095Z,11.26
2023-04-07T20:03:23.600Z,11.35
2023-04-07T20:05:52.901Z,11.58
2023-04-07T20:08:20.985Z,11.82
2023-04-07T20:10:50.505Z,11.43
2023-04-07T20:13:19.337Z,11.05
2023-04-07T20:15:50.644Z,10.69
2023-04-07T20:18:19.543Z,10.52
2023-04-07T20:20:47.348Z,10.13
2023-04-07T20:23:16.547Z,10.44
2023-04-07T20:25:44.442Z,10.59
2023-04-07T20:28:12.642Z,10.55
2023-04-07T20:30:40.745Z,10.27
2023-04-07T20:33:12.065Z,10.06
2023-04-07T20:35:40.489Z,10.30
2023-04-07T20:38:08.513Z,10.23
2023-04-07T20:40:37.218Z,10.12
2023-04-07T20:43:07.600Z,10.49
2023-04-07T20:45:36.678Z,10.79
2023-04-07T20:48:04.994Z,11.08
2023-04-07T20:50:34.678Z,11.30
2023-04-07T20:53:03.035Z,11.40
2023-04-07T20:55:31.724Z,11.04
2023-04-07T20:58:01.446Z,11.05
2023-04-07T21:00:29.463Z,10.89
2023-04-07T21:02:57.729Z,10.38
2023-04-07T21:05:26.296Z,10.42
2023-04-07T21:07:55.716Z,10.07
2023-04-07T21:10:23.779Z,10.21
2023-04-07T21:12:51.972Z,10.41
2023-04-07T21:15:20.924Z,10.92
2023-04-07T21:17:50.192Z,11.45
2023-04-07T21:20:18.368Z,11.71
2023-04-07T21:22:46.332Z,11.41
2023-04-07T21:25:16.653Z,11.09
2023-04-07T21:27:45.165Z,10.64
2023-04-07T21:30:15.161Z,10.63
2023-04-07T21:32:43.306Z,11.04
2023-04-07T21:35:11.573Z,10.99
2023-04-07T21:37:39.337Z,10.39
2023-04-07T21:40:08.023Z,10.00
2023-04-07T21:42:37.847Z,9.77
2023-04-07T21:45:07.621Z,9.49
2023-04-07T21:47:36.148Z,9.54
2023-04-07T21:50:04.678Z,9.57
2023-04-07T21:52:32.792Z,9.41
2023-04-07T21:55:00.985Z,9.64
2023-04-07T21:57:29.129Z,9.60
2023-04-07T21:59:58.655Z,9.93
2023-04-07T22:02:27.267Z,9.83
2023-04-07T22:04:56.636Z,10.04
2023-04-07T22:07:24.657Z,9.79
2023-04-07T22:09:52.884Z,9.80
2023-04-07T22:12:20.910Z,9.70
2023-04-07T22:14:49.005Z,9.39
2023-04-07T22:17:18.158Z,9.40
2023-04-07T22:19:46.396Z,9.70
2023-04-07T22:22:14.806Z,9.99
2023-04-07T22:24:43.983Z,10.37
2023-04-07T22:27:11.673Z,10.56
2023-04-07T22:29:39.609Z,10.45
2023-04-07T22:32:07.915Z,10.73
2023-04-07T22:34:37.300Z,10.91
2023-04-07T22:37:05.406Z,10.81
2023-04-07T22:39:33.566Z,10.75
2023-04-07T22:42:02.681Z,10.51
2023-04-07T22:44:32.181Z,10.70
2023-04-07T22:47:00.124Z,10.95
2023-04-07T22:49:28.218Z,10.55
2023-04-07T22:51:57.664Z,10.20
2023-04-07T22:54:25.756Z,10.34
2023-04-07T22:56:53.609Z,10.39
2023-04-07T22:59:21.762Z,9.64
2023-04-07T23:01:49.788Z,9.22
2023-04-07T23:04:17.704Z,9.09
2023-04-07T23:06:45.638Z,8.74
2023-04-07T23:09:14.860Z,8.65
2023-04-07T23:11:42.989Z,8.88
2023-04-07T23:14:11.446Z,8.87
2023-04-07T23:16:39.764Z,8.99
2023-04-07T23:19:11.843Z,8.93
2023-04-07T23:21:40.058Z,8.80
2023-04-07T23:24:07.770Z,8.87
2023-04-07T23:26:37.384Z,9.03
2023-04-07T23:29:05.387Z,9.06
2023-04-07T23:31:33.474Z,8.93
2023-04-07T23:34:01.292Z,8.78
2023-04-07T23:36:29.339Z,8.77
2023-04-07T23:38:57.411Z,8.58
2023-04-07T23:41:26.224Z,8.44
2023-04-07T23:43:55.914Z,8.37
2023-04-07T23:46:24.730Z,8.46
2023-04-07T23:48:52.824Z,8.45
2023-04-07T23:51:20.808Z,8.44
2023-04-07T23:53:49.022Z,8.50
2023-04-07T23:56:17.043Z,8.58
2023-04-07T23:58:45.107Z,8.48
